Current Conditions - Area Ports

 

CYWH - Victoria Harbour, British Columbia, Canada
Distance from station: WSW 10km
Updated: 10/20/2017 7:11am
Light rain, Showers, Mostly cloudy
Light rain, Showers, Mostly cloudy
 Wind from SSW
Wind: SSW 6 km/h
Temperature: 9°C
Dew Point: 8°C
Humidity: 94%
Barometer: 1002.4 hPa
Summary: Light rain, Showers
Clouds: Mostly cloudy
Visibility: 16 km
Cloud details: Few Clouds 457 m
Partly cloudy 1067 m
Mostly cloudy 1676 m
Mostly cloudy 6401 m
2017/10/20 14:11 CYWH 201411Z 21003KT 120V240 10SM -SHRA FEW015 SCT035 BKN055 BKN210 09/08 A2960 RMK SF1SC2SC3CI1 CVCTV CLD EMBD SLP026
KFHR - Friday Harbor, Washington, USA
Distance from station: ENE 19km
Updated: 10/20/2017 7:11am
Overcast
Overcast
 Wind from SSE
Wind: SSE 9 km/h
Temperature: 8°C
Wind Chill: 6°C
Dew Point: 8°C
Humidity: 100%
Barometer: 1003 hPa
Clouds: Overcast
Visibility: 14 km
Cloud details: Few Clouds 274 m
Mostly cloudy 1250 m
Overcast 1524 m
2017/10/20 14:11 KFHR 201411Z AUTO 16005KT 9SM FEW009 BKN041 OVC050 08/08 A2962 RMK AO2 T00780078
 
KORS - Eastsound/Orcas, Washington, USA
Distance from station: NE 38km
Updated: 10/20/2017 7:15am
Mostly cloudy
Mostly cloudy
 Wind from S
Wind: S 15 km/h
Temperature: 9°C
Wind Chill: 7°C
Dew Point: 8°C
Humidity: 94%
Barometer: 1002.4 hPa
Clouds: Mostly cloudy
Visibility: 16 km
Cloud details: Few Clouds 1158 m
Mostly cloudy 1829 m
Mostly cloudy 2438 m
2017/10/20 14:15 KORS 201415Z AUTO 18008KT 10SM FEW038 BKN060 BKN080 09/08 A2960 RMK AO2
KNUW - Whidbey Is. Nas, Washington, USA
Distance from station: ESE 47km
Updated: 10/20/2017 6:56am
Patches of fog, Mostly cloudy
Patches of fog, Mostly cloudy
 Wind from ESE
Wind: ESE 17 km/h
Temperature: 8°C
Wind Chill: 5°C
Dew Point: 5°C
Humidity: 82%
Barometer: 1004.1 hPa
Summary: Patches of Fog
Clouds: Mostly cloudy
Visibility: 14 km
Cloud details: Few Clouds 1067 m
Mostly cloudy 2134 m
Mostly cloudy 5791 m
Mostly cloudy 7620 m
2017/10/20 13:56 KNUW 201356Z 11009KT 9SM BCFG FEW035 BKN070 BKN190 BKN250 08/05 A2965 RMK AO2 SLP040 T00830050 $
 
CWEZ - Saturna Isl (map, British Columbia, Canada
Distance from station: NNE 40km
Updated: 10/19/2017 4:00am
NOT Current

 Wind from S
Wind: S 37 km/h
Temperature: 11°C
Dew Point: 10°C
Humidity: 94%
2017/10/19 11:00 CWEZ 191100Z AUTO 18020KT 11/10 RMK AO1 6005 PK WND 17024/1034 SLP993 T01100098 50008
CYCD - Nanaimo Airport, British Columbia, Canada
Distance from station: NW 80km
Updated: 10/20/2017 7:00am
Light rain, Mostly cloudy
Light rain, Mostly cloudy
 Wind from SSW
Wind: SSW 6 km/h
Temperature: 6°C
Dew Point: 6°C
Humidity: 100%
Barometer: 1001.4 hPa
Summary: Light rain
Clouds: Mostly cloudy
Visibility: 24 km
Cloud details: Mostly cloudy 1372 m
2017/10/20 14:00 CYCD 201400Z 20003KT 160V230 15SM -RA BKN045 06/06 A2957 RMK SC7 SLP016
 
CWVF - Sand Heads (ls), British Columbia, Canada
Distance from station: N 72km
Updated: 10/20/2017 7:30am

 Wind from E
Wind: E 15 km/h
Temperature: 9°C
Wind Chill: 7°C
2017/10/20 14:30 CWVF 201430Z AUTO 09008KT 09/ RMK AO1 T0089
CWQK - Race Rocks Autob, British Columbia, Canada
Distance from station: SW 26km
Updated: 10/20/2017 7:00am

 Wind from SE
Wind: SE 15 km/h
Temperature: 9°C
Wind Chill: 7°C
Dew Point: 7°C
Humidity: 87%
2017/10/20 14:00 CWQK 201400Z AUTO 14008KT 09/07 RMK AO1 SLP024 T00870073 52022
 
CWSP - Sheringham Autob, British Columbia, Canada
Distance from station: W 49km
Updated: 10/20/2017 7:00am

 Wind from E
Wind: E 13 km/h
Temperature: 9°C
Wind Chill: 7°C
Dew Point: 8°C
Humidity: 94%
2017/10/20 14:00 CWSP 201400Z AUTO 09007KT 09/08 RMK AO1 SLP022 T00860078 53019